Time;durP1;ratioP1;P1;durP2;ratioP2;P2;SDS_P1;SDS_P2;PMS_P1;PMS_P2;Temp;Humidity;BMP_temperature;BMP_pressure;BME280_temperature;BME280_humidity;BME280_pressure;Samples;Min_cycle;Max_cycle;Signal;HPM_P1;HPM_P2
2022/01/30 00:01:43;;;;;;;37.17;17.10;;;3.50;99.90;;;;;;5053707;28;20072;-72
2022/01/30 00:04:09;;;;;;;36.43;15.87;;;3.50;99.90;;;;;;5053797;28;20071;-72
2022/01/30 00:06:35;;;;;;;35.50;16.10;;;3.50;99.90;;;;;;5053104;28;20025;-73
2022/01/30 00:09:01;;;;;;;40.17;16.80;;;3.50;99.90;;;;;;5053057;28;20111;-72
2022/01/30 00:11:32;;;;;;;35.77;14.33;;;3.50;99.90;;;;;;5052803;28;20079;-73
2022/01/30 00:14:00;;;;;;;34.50;15.67;;;3.50;99.90;;;;;;5032047;28;20022;-73
2022/01/30 00:16:30;;;;;;;38.87;17.40;;;3.50;99.90;;;;;;5031700;28;20079;-73
2022/01/30 00:19:07;;;;;;;39.13;17.63;;;3.60;99.90;;;;;;5026547;28;20040;-74
2022/01/30 00:21:39;;;;;;;30.93;14.70;;;3.60;99.90;;;;;;5032172;28;20029;-74
2022/01/30 00:24:14;;;;;;;31.90;14.77;;;3.60;99.90;;;;;;5033292;28;20554;-76
2022/01/30 00:26:41;;;;;;;34.40;14.97;;;3.50;99.90;;;;;;5025754;28;20079;-74
2022/01/30 00:29:08;;;;;;;35.10;15.30;;;3.50;99.90;;;;;;5027718;28;20117;-75
2022/01/30 00:31:36;;;;;;;31.23;14.07;;;3.50;99.90;;;;;;5030432;28;20057;-74
2022/01/30 00:34:02;;;;;;;30.77;13.10;;;3.60;99.90;;;;;;5039419;28;20096;-73
2022/01/30 00:36:31;;;;;;;30.60;14.33;;;3.60;99.90;;;;;;5033150;28;20135;-76
2022/01/30 00:38:57;;;;;;;32.73;14.70;;;3.60;99.90;;;;;;5032357;28;20390;-75
2022/01/30 00:41:26;;;;;;;29.60;14.53;;;3.50;99.90;;;;;;5050505;28;20103;-76
2022/01/30 00:43:52;;;;;;;32.17;14.43;;;3.50;99.90;;;;;;5050421;28;20013;-77
2022/01/30 00:46:18;;;;;;;27.67;12.83;;;3.50;99.90;;;;;;5050623;28;20387;-76
2022/01/30 00:48:44;;;;;;;31.83;13.67;;;3.50;99.90;;;;;;5051687;28;20474;-77
2022/01/30 00:51:10;;;;;;;36.80;15.17;;;3.50;99.90;;;;;;5051745;28;20025;-77
2022/01/30 00:53:36;;;;;;;34.10;13.87;;;3.50;99.90;;;;;;5051269;28;20024;-77
2022/01/30 00:56:03;;;;;;;30.50;13.83;;;3.50;99.90;;;;;;5033647;28;20487;-76
2022/01/30 00:58:29;;;;;;;28.17;13.60;;;3.50;99.90;;;;;;5033808;28;20471;-78
2022/01/30 01:01:02;;;;;;;27.90;12.73;;;3.40;99.90;;;;;;5033975;28;20070;-76
2022/01/30 01:03:28;;;;;;;27.33;11.60;;;3.40;99.90;;;;;;5033805;28;20037;-77
2022/01/30 01:05:54;;;;;;;28.37;12.97;;;3.40;99.80;;;;;;5051902;28;20017;-77
2022/01/30 01:08:31;;;;;;;26.83;12.10;;;3.40;99.80;;;;;;5051562;28;20025;-77
2022/01/30 01:11:11;;;;;;;24.93;12.20;;;3.40;99.90;;;;;;5051865;28;20021;-76
2022/01/30 01:13:59;;;;;;;24.10;10.90;;;3.40;99.90;;;;;;5033207;28;20048;-77
2022/01/30 01:24:28;;;;;;;26.67;12.10;;;3.30;99.90;;;;;;5071627;28;20032;-76
2022/01/30 01:26:54;;;;;;;32.83;13.60;;;3.30;99.90;;;;;;5071237;28;20382;-78
2022/01/30 01:29:22;;;;;;;34.97;13.07;;;3.30;99.90;;;;;;5070088;28;20035;-77
2022/01/30 01:31:51;;;;;;;25.97;13.03;;;3.20;99.90;;;;;;5070318;28;20028;-77
2022/01/30 01:34:32;;;;;;;27.83;12.93;;;3.10;99.90;;;;;;5071486;28;20047;-78
2022/01/30 01:36:58;;;;;;;28.13;12.70;;;3.10;99.90;;;;;;5071556;28;20020;-77
2022/01/30 01:39:24;;;;;;;27.67;12.73;;;3.00;99.90;;;;;;5070019;28;20028;-77
2022/01/30 01:41:50;;;;;;;28.10;12.87;;;3.00;99.90;;;;;;5071258;28;20032;-77
2022/01/30 01:44:38;;;;;;;28.77;12.40;;;3.10;99.90;;;;;;5071421;28;20021;-78
2022/01/30 01:47:05;;;;;;;22.30;10.87;;;3.10;99.90;;;;;;5069968;28;20050;-77
2022/01/30 01:49:33;;;;;;;27.97;11.53;;;3.10;99.90;;;;;;5071380;28;20047;-76
2022/01/30 01:52:41;;;;;;;21.87;10.67;;;3.10;99.90;;;;;;5069918;28;20024;-76
2022/01/30 01:54:54;;;;;;;23.80;11.97;;;3.10;99.90;;;;;;5060238;28;20032;-76
2022/01/30 01:57:21;;;;;;;27.98;11.93;;;3.10;99.90;;;;;;5071197;28;20509;-76
2022/01/30 01:59:47;;;;;;;27.57;11.50;;;3.10;99.90;;;;;;5070904;28;20057;-77
2022/01/30 02:02:13;;;;;;;22.60;10.77;;;3.10;99.90;;;;;;5071104;28;20033;-77
2022/01/30 02:04:41;;;;;;;24.97;11.00;;;3.10;99.90;;;;;;5073484;28;20028;-76
2022/01/30 02:09:52;;;;;;;21.43;10.27;;;3.10;99.90;;;;;;5074702;28;20033;-77
2022/01/30 02:12:27;;;;;;;22.60;11.43;;;3.10;99.90;;;;;;5074840;28;20551;-76
2022/01/30 02:15:12;;;;;;;27.37;12.20;;;3.00;99.90;;;;;;5074685;28;20052;-76
2022/01/30 02:25:57;;;;;;;22.27;10.70;;;3.00;99.90;;;;;;5074647;28;20508;-76
2022/01/30 02:28:29;;;;;;;25.27;11.60;;;3.00;99.90;;;;;;5074478;28;20029;-77
2022/01/30 02:31:01;;;;;;;32.78;13.15;;;3.00;99.90;;;;;;5074340;28;20032;-77
2022/01/30 02:33:27;;;;;;;26.93;12.37;;;2.90;99.90;;;;;;5074324;28;20482;-77
2022/01/30 02:35:53;;;;;;;24.77;11.70;;;2.90;99.90;;;;;;5048611;28;20746;-77
2022/01/30 02:38:23;;;;;;;23.80;12.13;;;2.90;99.90;;;;;;5054121;28;20247;-78
2022/01/30 02:40:53;;;;;;;21.17;10.70;;;3.00;99.90;;;;;;5036269;28;20025;-76
2022/01/30 02:43:23;;;;;;;22.40;10.13;;;3.00;99.90;;;;;;5036197;28;20390;-77
2022/01/30 02:46:05;;;;;;;26.23;11.13;;;3.00;99.90;;;;;;5054180;28;20104;-77
2022/01/30 02:48:52;;;;;;;26.00;11.05;;;3.00;99.90;;;;;;5053846;28;20029;-78
2022/01/30 02:51:20;;;;;;;21.63;11.20;;;3.00;99.90;;;;;;5053967;28;20039;-76
2022/01/30 02:53:55;;;;;;;21.57;11.97;;;2.80;99.90;;;;;;5035918;28;20029;-76
2022/01/30 02:56:21;;;;;;;21.57;11.03;;;2.60;99.90;;;;;;5035725;28;20035;-76
2022/01/30 02:58:47;;;;;;;30.57;12.50;;;2.60;99.90;;;;;;5053574;28;20564;-76
2022/01/30 03:01:13;;;;;;;25.67;12.00;;;2.60;99.90;;;;;;5035820;28;20036;-76
2022/01/30 03:03:39;;;;;;;23.63;11.00;;;2.60;99.90;;;;;;5053587;28;20029;-77
2022/01/30 03:06:05;;;;;;;21.33;9.67;;;2.60;99.90;;;;;;5053457;28;20028;-76
2022/01/30 03:08:30;;;;;;;21.50;10.13;;;2.60;99.90;;;;;;5053450;28;20112;-76
2022/01/30 03:10:56;;;;;;;20.43;9.53;;;2.60;99.90;;;;;;5053483;28;20040;-76
2022/01/30 03:13:22;;;;;;;20.20;10.00;;;2.70;99.90;;;;;;5053513;28;20075;-76
2022/01/30 03:15:47;;;;;;;22.63;10.40;;;2.70;99.90;;;;;;5052614;28;20036;-76
2022/01/30 03:18:13;;;;;;;24.27;11.20;;;2.70;99.90;;;;;;5035261;28;20166;-77
2022/01/30 03:20:41;;;;;;;20.40;10.40;;;2.60;99.90;;;;;;5053277;28;20029;-76
2022/01/30 03:23:07;;;;;;;25.50;12.03;;;2.60;99.90;;;;;;5062510;28;20078;-76
2022/01/30 03:25:33;;;;;;;26.90;12.40;;;2.70;99.90;;;;;;5073085;28;20103;-76
2022/01/30 03:28:01;;;;;;;24.17;11.73;;;2.60;99.90;;;;;;5072920;28;20017;-76
2022/01/30 03:30:30;;;;;;;23.40;11.37;;;2.60;99.90;;;;;;5055106;28;20587;-77
2022/01/30 03:32:56;;;;;;;28.13;12.50;;;2.60;99.90;;;;;;5072977;28;20112;-76
2022/01/30 03:35:22;;;;;;;23.87;11.70;;;2.50;99.90;;;;;;5072767;28;20052;-76
2022/01/30 03:37:48;;;;;;;25.67;12.47;;;2.50;99.90;;;;;;5072851;28;20455;-76
2022/01/30 03:40:14;;;;;;;25.07;11.43;;;2.50;99.90;;;;;;5072665;28;20086;-76
2022/01/30 03:42:40;;;;;;;21.40;10.43;;;2.50;99.90;;;;;;5054743;28;20024;-76
2022/01/30 03:45:06;;;;;;;22.97;10.80;;;2.50;99.90;;;;;;5072780;28;20017;-76
2022/01/30 03:47:35;;;;;;;23.57;10.73;;;2.40;99.90;;;;;;5072502;28;20592;-76
2022/01/30 03:50:01;;;;;;;19.03;11.13;;;2.50;99.90;;;;;;5054609;28;20024;-76
2022/01/30 03:52:27;;;;;;;21.23;10.63;;;2.50;99.90;;;;;;5072786;28;20359;-77
2022/01/30 03:54:52;;;;;;;18.00;9.43;;;2.50;99.90;;;;;;5072588;28;20032;-76
2022/01/30 03:57:18;;;;;;;20.87;10.67;;;2.50;99.90;;;;;;5054610;28;20025;-76
2022/01/30 03:59:44;;;;;;;22.53;11.13;;;2.50;99.90;;;;;;5072324;28;20028;-76
2022/01/30 04:02:09;;;;;;;22.47;11.57;;;2.50;99.90;;;;;;5072403;28;20478;-76
2022/01/30 04:04:35;;;;;;;23.40;12.17;;;2.50;99.90;;;;;;5072454;28;20073;-76
2022/01/30 04:07:01;;;;;;;23.00;12.00;;;2.50;99.90;;;;;;5072171;28;20213;-77
2022/01/30 04:09:28;;;;;;;24.80;10.90;;;2.50;99.90;;;;;;5072304;28;20028;-77
2022/01/30 04:11:54;;;;;;;19.57;10.40;;;2.50;99.90;;;;;;5072207;28;20371;-76
2022/01/30 04:14:21;;;;;;;22.17;11.73;;;2.60;99.90;;;;;;5072339;28;20032;-77
2022/01/30 04:16:47;;;;;;;21.87;11.60;;;2.60;99.90;;;;;;5072257;28;20052;-76
2022/01/30 04:19:13;;;;;;;24.17;12.77;;;2.50;99.90;;;;;;5054113;28;20034;-77
2022/01/30 04:21:39;;;;;;;23.03;11.73;;;2.50;99.90;;;;;;5072080;28;20024;-74
2022/01/30 04:24:05;;;;;;;21.53;11.37;;;2.50;99.90;;;;;;5071977;28;20029;-76
2022/01/30 04:26:31;;;;;;;24.67;11.83;;;2.50;99.90;;;;;;5071773;28;20021;-76
2022/01/30 04:28:57;;;;;;;24.03;11.33;;;2.60;99.90;;;;;;5069615;28;20024;-76
2022/01/30 04:31:24;;;;;;;22.23;12.00;;;2.60;99.90;;;;;;5071825;28;20063;-77
2022/01/30 04:33:50;;;;;;;26.47;11.97;;;2.50;99.90;;;;;;5071927;28;20111;-77
2022/01/30 04:36:22;;;;;;;27.50;11.93;;;2.50;99.90;;;;;;5071846;28;20067;-77
2022/01/30 04:57:36;;;;;;;23.90;12.43;;;2.20;99.90;;;;;;5071626;28;20029;-76
2022/01/30 05:09:50;;;;;;;28.80;12.53;;;2.30;99.90;;;;;;5071363;28;20060;-77
2022/01/30 05:12:16;;;;;;;22.27;11.47;;;2.40;99.90;;;;;;5053409;28;20029;-76
2022/01/30 05:14:42;;;;;;;20.93;10.57;;;2.30;99.90;;;;;;5071621;28;20449;-76
2022/01/30 05:17:08;;;;;;;22.20;10.57;;;2.40;99.90;;;;;;5071138;28;20049;-77
2022/01/30 05:19:34;;;;;;;23.90;11.80;;;2.30;99.90;;;;;;5071077;28;20055;-77
2022/01/30 05:22:00;;;;;;;18.90;10.17;;;2.40;99.90;;;;;;5069978;28;20293;-76
2022/01/30 05:24:26;;;;;;;22.60;10.80;;;2.40;99.90;;;;;;5071140;28;20027;-77
2022/01/30 05:26:52;;;;;;;19.17;9.83;;;2.40;99.90;;;;;;5071256;28;20480;-76
2022/01/30 05:29:18;;;;;;;21.90;10.43;;;2.30;99.90;;;;;;5071277;28;20028;-76
2022/01/30 05:31:44;;;;;;;20.57;10.90;;;2.30;99.90;;;;;;5071332;28;20474;-77
2022/01/30 05:34:11;;;;;;;18.50;10.37;;;2.30;99.90;;;;;;5071575;28;20055;-76
2022/01/30 05:36:40;;;;;;;19.83;10.37;;;2.30;99.90;;;;;;5071322;28;20021;-76
2022/01/30 05:39:06;;;;;;;24.67;10.20;;;2.30;99.90;;;;;;5072638;28;20096;-76
2022/01/30 05:41:36;;;;;;;21.47;10.80;;;2.30;99.90;;;;;;5057162;28;20024;-77
2022/01/30 05:44:14;;;;;;;22.83;10.40;;;2.30;99.90;;;;;;5057203;28;20024;-77
2022/01/30 05:46:49;;;;;;;22.17;10.23;;;2.30;99.90;;;;;;5075027;28;20070;-76
2022/01/30 05:49:15;;;;;;;25.87;11.47;;;2.30;99.90;;;;;;5074814;28;20393;-76
2022/01/30 05:51:41;;;;;;;22.30;10.33;;;2.30;99.90;;;;;;5074964;28;20021;-76
2022/01/30 05:54:07;;;;;;;22.23;11.17;;;2.30;99.90;;;;;;5057003;28;20032;-77
2022/01/30 05:56:33;;;;;;;19.53;10.53;;;2.30;99.90;;;;;;5074860;28;20031;-77
2022/01/30 05:59:03;;;;;;;21.13;10.33;;;2.30;99.90;;;;;;5074665;28;20505;-76
2022/01/30 06:01:29;;;;;;;25.10;10.77;;;2.30;99.90;;;;;;5056753;28;20021;-76
2022/01/30 06:03:55;;;;;;;18.37;9.80;;;2.30;99.90;;;;;;5074709;28;20031;-76
2022/01/30 06:06:20;;;;;;;23.53;11.33;;;2.30;99.90;;;;;;5074762;28;20025;-76
2022/01/30 06:08:58;;;;;;;21.60;10.70;;;2.30;99.90;;;;;;5074526;28;20112;-76
2022/01/30 06:11:24;;;;;;;21.93;10.13;;;2.30;99.90;;;;;;5074642;28;20174;-76
2022/01/30 06:13:50;;;;;;;21.83;10.53;;;2.30;99.90;;;;;;5056509;28;20119;-76
2022/01/30 06:16:16;;;;;;;21.37;11.10;;;2.30;99.90;;;;;;5074287;28;20418;-77
2022/01/30 06:18:43;;;;;;;24.70;11.57;;;2.30;99.90;;;;;;5074206;28;20458;-76
2022/01/30 06:21:09;;;;;;;22.03;11.20;;;2.30;99.90;;;;;;5074460;28;20021;-76
2022/01/30 06:23:36;;;;;;;21.40;10.73;;;2.30;99.90;;;;;;5074469;28;20112;-76
2022/01/30 06:26:02;;;;;;;21.57;10.47;;;2.30;99.90;;;;;;5074476;28;20023;-76
2022/01/30 06:28:28;;;;;;;19.33;10.20;;;2.30;99.90;;;;;;5056324;28;20063;-77
2022/01/30 06:30:54;;;;;;;23.87;10.97;;;2.30;99.90;;;;;;5074082;28;20025;-76
2022/01/30 06:33:20;;;;;;;22.57;10.93;;;2.30;99.90;;;;;;5074132;28;20025;-76
2022/01/30 06:35:46;;;;;;;21.90;10.90;;;2.30;99.90;;;;;;5074146;28;20115;-77
2022/01/30 06:38:12;;;;;;;28.47;12.37;;;2.20;99.90;;;;;;5073347;28;20028;-76
2022/01/30 06:40:38;;;;;;;25.90;12.00;;;2.20;99.90;;;;;;5074090;28;20390;-76
2022/01/30 06:43:04;;;;;;;28.77;12.53;;;2.20;99.90;;;;;;5074022;28;20025;-76
2022/01/30 06:45:30;;;;;;;25.27;11.70;;;2.20;99.90;;;;;;5055744;28;20035;-77
2022/01/30 06:47:56;;;;;;;23.00;11.50;;;2.20;99.90;;;;;;5073813;28;20524;-76
2022/01/30 06:50:24;;;;;;;23.53;11.70;;;2.30;99.90;;;;;;5071784;28;20063;-76
2022/01/30 06:52:49;;;;;;;24.87;11.87;;;2.30;99.90;;;;;;5073942;28;20031;-76
2022/01/30 06:55:15;;;;;;;22.83;12.17;;;2.20;99.90;;;;;;5073772;28;20024;-76
2022/01/30 06:57:45;;;;;;;23.03;11.73;;;2.20;99.90;;;;;;5073678;28;20063;-76
2022/01/30 07:00:14;;;;;;;22.77;11.23;;;2.20;99.90;;;;;;5055651;28;20074;-77
2022/01/30 07:02:40;;;;;;;22.10;11.50;;;2.20;99.90;;;;;;5073639;28;20040;-76
2022/01/30 07:05:06;;;;;;;23.83;11.17;;;2.30;99.90;;;;;;5055701;28;20020;-76
2022/01/30 07:07:32;;;;;;;32.07;12.50;;;2.30;99.90;;;;;;5073638;28;20027;-76
2022/01/30 07:09:57;;;;;;;25.93;12.47;;;2.30;99.90;;;;;;5055488;28;20024;-76
2022/01/30 07:12:23;;;;;;;27.07;11.93;;;2.30;99.90;;;;;;5073100;28;20108;-76
2022/01/30 07:14:49;;;;;;;25.43;12.50;;;2.30;99.90;;;;;;5073383;28;20027;-76
2022/01/30 07:17:15;;;;;;;27.53;13.17;;;2.30;99.90;;;;;;5073180;28;20048;-77
2022/01/30 07:19:41;;;;;;;24.63;12.50;;;2.30;99.90;;;;;;5073275;28;20039;-77
2022/01/30 07:22:07;;;;;;;22.93;11.07;;;2.30;99.90;;;;;;5073343;28;20425;-76
2022/01/30 07:24:33;;;;;;;26.60;11.27;;;2.30;99.90;;;;;;5073237;28;20115;-77
2022/01/30 07:26:59;;;;;;;25.20;11.83;;;2.30;99.90;;;;;;5073340;28;20493;-77
2022/01/30 07:29:24;;;;;;;24.60;12.37;;;2.40;99.90;;;;;;5073050;28;20084;-76
2022/01/30 07:31:50;;;;;;;21.00;11.17;;;2.40;99.90;;;;;;5055089;28;20074;-76
2022/01/30 07:34:16;;;;;;;28.57;12.70;;;2.50;99.90;;;;;;5055056;28;20039;-77
2022/01/30 07:36:43;;;;;;;25.57;13.47;;;2.50;99.90;;;;;;5072978;28;20059;-76
2022/01/30 07:39:15;;;;;;;24.53;12.53;;;2.50;99.90;;;;;;5072837;28;20024;-76
2022/01/30 07:41:43;;;;;;;24.07;12.47;;;2.50;99.90;;;;;;5072854;28;20020;-76
2022/01/30 07:44:09;;;;;;;29.97;13.40;;;2.50;99.90;;;;;;5072800;28;20032;-76
2022/01/30 07:46:34;;;;;;;27.50;13.33;;;2.50;99.90;;;;;;5072802;28;20024;-77
2022/01/30 07:49:03;;;;;;;28.13;13.17;;;2.50;99.90;;;;;;5054640;28;20382;-77
2022/01/30 07:51:29;;;;;;;26.17;13.47;;;2.50;99.90;;;;;;5071488;28;20046;-77
2022/01/30 07:53:55;;;;;;;24.27;12.93;;;2.60;99.90;;;;;;5072617;28;20119;-76
2022/01/30 07:56:20;;;;;;;28.33;13.67;;;2.60;99.90;;;;;;5054397;28;20397;-76
2022/01/30 07:58:46;;;;;;;25.90;13.57;;;2.60;99.90;;;;;;5072323;28;20025;-76
2022/01/30 08:01:12;;;;;;;25.67;13.83;;;2.70;99.90;;;;;;5072351;28;20440;-76
2022/01/30 08:03:37;;;;;;;31.40;13.30;;;2.70;99.90;;;;;;5054416;28;20421;-77
2022/01/30 08:06:03;;;;;;;27.47;13.10;;;2.80;99.90;;;;;;5072576;28;20021;-76
2022/01/30 08:08:29;;;;;;;27.90;12.73;;;2.90;99.90;;;;;;5072405;28;20024;-77
2022/01/30 08:10:54;;;;;;;26.93;13.60;;;2.90;99.90;;;;;;5072236;28;20062;-76
2022/01/30 08:13:20;;;;;;;31.47;14.23;;;3.00;99.90;;;;;;5072182;28;20024;-77
2022/01/30 08:15:46;;;;;;;30.30;14.17;;;3.00;99.90;;;;;;5072111;28;20082;-77
2022/01/30 08:18:12;;;;;;;38.27;16.27;;;3.10;99.90;;;;;;5054089;28;20497;-76
2022/01/30 08:20:38;;;;;;;34.00;15.90;;;3.10;99.90;;;;;;5072034;28;20486;-76
2022/01/30 08:23:10;;;;;;;39.07;16.97;;;3.20;99.90;;;;;;5054156;28;20031;-76
2022/01/30 08:25:36;;;;;;;33.93;16.50;;;3.30;99.90;;;;;;5072060;28;20052;-76
2022/01/30 08:28:02;;;;;;;34.20;17.40;;;3.30;99.90;;;;;;5071856;28;20440;-77
2022/01/30 08:30:28;;;;;;;34.63;16.30;;;3.40;99.90;;;;;;5072085;28;20090;-77
2022/01/30 08:32:54;;;;;;;39.67;18.33;;;3.40;99.90;;;;;;5053837;28;20032;-77
2022/01/30 08:35:20;;;;;;;42.93;19.17;;;3.50;99.90;;;;;;5071849;28;20040;-77
2022/01/30 08:37:47;;;;;;;45.57;20.23;;;3.50;99.90;;;;;;5071735;28;20033;-76
2022/01/30 08:40:21;;;;;;;41.40;20.97;;;3.60;99.90;;;;;;5071715;28;20042;-76
2022/01/30 08:42:48;;;;;;;41.73;23.43;;;3.60;99.90;;;;;;5068302;28;20023;-76
2022/01/30 08:45:15;;;;;;;50.07;25.60;;;3.70;99.90;;;;;;5071787;28;20112;-76
2022/01/30 08:47:43;;;;;;;55.60;25.13;;;3.70;99.90;;;;;;5071686;28;20459;-76
2022/01/30 08:50:09;;;;;;;54.37;25.90;;;3.70;99.90;;;;;;5071336;28;20028;-76
2022/01/30 08:52:35;;;;;;;56.30;27.33;;;3.70;99.90;;;;;;5071475;28;20512;-76
2022/01/30 08:55:03;;;;;;;61.63;30.63;;;3.80;99.90;;;;;;5053753;28;20111;-76
2022/01/30 08:57:29;;;;;;;63.97;31.73;;;3.90;99.90;;;;;;5071430;28;20028;-76
2022/01/30 08:59:57;;;;;;;72.33;32.97;;;4.00;99.90;;;;;;5071414;28;20059;-77
2022/01/30 09:02:23;;;;;;;73.00;34.27;;;4.00;99.90;;;;;;5053484;28;20485;-76
2022/01/30 09:04:49;;;;;;;72.87;35.10;;;4.10;99.90;;;;;;5071533;28;20031;-77
2022/01/30 09:07:16;;;;;;;77.57;36.77;;;4.10;99.90;;;;;;5071386;28;20083;-77
2022/01/30 09:09:42;;;;;;;77.50;35.27;;;4.20;99.90;;;;;;5053749;28;20028;-77
2022/01/30 09:12:08;;;;;;;72.00;36.30;;;4.20;99.90;;;;;;5071515;28;20029;-76
2022/01/30 09:14:36;;;;;;;79.00;36.53;;;4.20;99.90;;;;;;5070412;28;20111;-77
2022/01/30 09:17:02;;;;;;;76.60;36.53;;;4.30;99.90;;;;;;5071242;28;20098;-76
2022/01/30 09:19:27;;;;;;;71.03;36.92;;;4.30;99.90;;;;;;5071362;28;20028;-76
2022/01/30 09:21:53;;;;;;;74.07;35.87;;;4.40;99.90;;;;;;5071183;28;20112;-76
2022/01/30 09:24:19;;;;;;;78.67;37.20;;;4.50;99.90;;;;;;5071290;28;20486;-76
2022/01/30 09:26:45;;;;;;;77.53;36.20;;;4.60;99.90;;;;;;5053144;28;20031;-76
2022/01/30 09:29:10;;;;;;;83.07;38.80;;;4.70;99.90;;;;;;5062869;28;20115;-76
2022/01/30 09:31:40;;;;;;;80.40;36.40;;;4.80;99.90;;;;;;5053242;28;20391;-76
2022/01/30 09:34:05;;;;;;;78.37;36.10;;;4.80;99.90;;;;;;5071196;28;20168;-76
2022/01/30 09:36:31;;;;;;;78.60;37.37;;;4.80;99.90;;;;;;5071146;28;20029;-76
2022/01/30 09:38:57;;;;;;;79.32;37.92;;;4.90;99.90;;;;;;5071206;28;20031;-77
2022/01/30 09:41:25;;;;;;;82.38;38.10;;;4.90;99.90;;;;;;5070949;28;20140;-77
2022/01/30 09:43:51;;;;;;;77.15;36.10;;;5.10;99.90;;;;;;5047236;28;20017;-76
2022/01/30 09:46:17;;;;;;;77.07;36.90;;;5.10;99.90;;;;;;5036573;28;20028;-76
2022/01/30 09:48:44;;;;;;;79.95;35.85;;;5.20;99.90;;;;;;5052045;28;20048;-76
2022/01/30 09:51:10;;;;;;;85.97;36.70;;;5.20;99.90;;;;;;5033742;28;20292;-77
2022/01/30 09:53:38;;;;;;;82.78;36.72;;;5.20;99.90;;;;;;5056392;28;20486;-76
2022/01/30 09:56:06;;;;;;;83.90;35.20;;;5.30;99.90;;;;;;5070390;28;20045;-77
2022/01/30 09:58:32;;;;;;;84.63;36.13;;;5.30;99.90;;;;;;5071723;28;20029;-77
2022/01/30 10:00:58;;;;;;;86.20;38.60;;;5.40;99.90;;;;;;5071871;28;20059;-77
2022/01/30 10:03:28;;;;;;;86.30;36.85;;;5.40;99.90;;;;;;5070730;28;20029;-77
2022/01/30 10:06:05;;;;;;;74.78;35.60;;;5.50;99.90;;;;;;5072111;28;20052;-76
2022/01/30 10:08:32;;;;;;;85.50;36.45;;;5.60;99.90;;;;;;5071858;28;20025;-76
2022/01/30 10:11:04;;;;;;;85.60;37.40;;;5.60;99.90;;;;;;5070440;28;20111;-77
2022/01/30 10:13:31;;;;;;;95.40;41.45;;;5.60;99.90;;;;;;5071973;28;20025;-77
2022/01/30 10:16:03;;;;;;;89.03;41.22;;;5.70;99.90;;;;;;5071834;28;20429;-77
2022/01/30 10:18:33;;;;;;;83.22;36.65;;;5.70;99.90;;;;;;5071919;28;20115;-77
2022/01/30 10:21:00;;;;;;;83.70;38.95;;;5.80;99.90;;;;;;5072139;28;21129;-76
2022/01/30 10:23:34;;;;;;;83.72;37.28;;;5.80;99.90;;;;;;5072058;28;20371;-77
2022/01/30 10:26:01;;;;;;;88.65;38.83;;;5.90;99.90;;;;;;5071815;28;20030;-76
2022/01/30 10:28:30;;;;;;;91.35;39.53;;;6.00;99.90;;;;;;5075525;28;20359;-76
2022/01/30 10:30:58;;;;;;;84.43;37.75;;;6.00;99.90;;;;;;5075496;28;20078;-77
2022/01/30 10:33:46;;;;;;;88.85;39.38;;;6.10;99.90;;;;;;5075509;28;20073;-76
2022/01/30 10:36:25;;;;;;;77.97;35.90;;;6.10;99.90;;;;;;5075032;28;20032;-76
2022/01/30 10:39:13;;;;;;;79.43;36.25;;;6.20;99.90;;;;;;5074682;28;20025;-77
2022/01/30 10:41:44;;;;;;;80.68;37.72;;;6.20;99.90;;;;;;5054629;28;20501;-76
2022/01/30 10:44:10;;;;;;;86.50;39.95;;;6.30;99.90;;;;;;5074820;28;20603;-76
2022/01/30 10:46:44;;;;;;;82.68;38.45;;;6.30;99.90;;;;;;5075049;28;20043;-77
2022/01/30 10:49:12;;;;;;;86.95;38.30;;;6.40;99.90;;;;;;5074921;28;20647;-76
2022/01/30 10:51:40;;;;;;;95.95;39.58;;;6.50;99.90;;;;;;5074724;28;20025;-77
2022/01/30 10:54:07;;;;;;;89.75;38.20;;;6.60;99.90;;;;;;5073163;28;20028;-79
2022/01/30 10:56:34;;;;;;;83.95;37.78;;;6.60;99.90;;;;;;5071623;28;20162;-79
2022/01/30 10:59:14;;;;;;;84.93;38.58;;;6.60;99.90;;;;;;5071594;28;20394;-79
2022/01/30 11:01:46;;;;;;;84.53;38.40;;;6.60;99.90;;;;;;5069783;28;20021;-78
2022/01/30 11:04:30;;;;;;;88.77;38.30;;;6.70;99.90;;;;;;5072201;28;20031;-80
2022/01/30 11:07:00;;;;;;;84.45;36.92;;;6.70;99.90;;;;;;5070488;28;20474;-79
2022/01/30 11:09:33;;;;;;;78.30;36.00;;;6.80;99.90;;;;;;5071992;28;20482;-79
2022/01/30 11:12:05;;;;;;;;;;;6.80;99.90;;;;;;5072237;28;20024;-79
2022/01/30 11:14:50;;;;;;;88.88;38.28;;;6.90;99.90;;;;;;5071327;28;20308;-79
2022/01/30 11:17:19;;;;;;;86.45;36.50;;;6.90;99.90;;;;;;5072183;28;20539;-80
2022/01/30 11:19:48;;;;;;;88.45;38.83;;;7.00;99.90;;;;;;5070150;28;20028;-78
2022/01/30 11:22:19;;;;;;;83.68;36.80;;;7.00;99.90;;;;;;5071290;28;20074;-78
2022/01/30 11:24:47;;;;;;;80.60;36.95;;;7.00;99.90;;;;;;5052826;28;20105;-78
2022/01/30 11:27:18;;;;;;;87.22;38.05;;;7.00;99.90;;;;;;5070179;28;20104;-79
2022/01/30 11:29:49;;;;;;;84.63;38.25;;;7.10;99.90;;;;;;5042498;28;20461;-78
2022/01/30 11:32:16;;;;;;;91.30;37.47;;;7.10;99.90;;;;;;5058911;28;20098;-79
2022/01/30 11:34:44;;;;;;;81.28;35.95;;;7.10;99.90;;;;;;5068037;28;20032;-81
2022/01/30 11:37:19;;;;;;;90.55;36.45;;;7.10;99.90;;;;;;5060925;28;20478;-79
2022/01/30 11:39:51;;;;;;;85.22;36.53;;;7.30;99.90;;;;;;5070138;28;20075;-79
2022/01/30 11:42:23;;;;;;;76.57;35.80;;;7.50;99.90;;;;;;5052757;28;20059;-77
2022/01/30 11:45:06;;;;;;;83.53;37.30;;;7.50;99.90;;;;;;5071708;28;20027;-78
2022/01/30 11:47:52;;;;;;;97.28;38.33;;;7.60;99.90;;;;;;5069660;28;20111;-77
2022/01/30 11:50:21;;;;;;;85.68;38.33;;;7.60;99.90;;;;;;5071235;28;20447;-78
2022/01/30 11:52:55;;;;;;;91.63;37.70;;;7.60;99.90;;;;;;5070383;28;20020;-79
2022/01/30 11:55:42;;;;;;;84.00;38.58;;;7.60;99.90;;;;;;5069300;28;20025;-78
2022/01/30 11:58:49;;;;;;;88.03;39.15;;;7.70;99.90;;;;;;5069098;28;20554;-78
2022/01/30 12:01:26;;;;;;;81.97;37.53;;;7.70;99.90;;;;;;5071128;28;20028;-78
2022/01/30 12:04:00;;;;;;;88.60;37.58;;;7.80;99.90;;;;;;5071591;28;20017;-79
2022/01/30 12:06:29;;;;;;;82.65;35.97;;;7.90;99.90;;;;;;5073515;28;20024;-78
2022/01/30 12:09:00;;;;;;;78.00;36.90;;;8.00;99.90;;;;;;5055284;28;20029;-81
2022/01/30 12:11:37;;;;;;;85.60;39.15;;;8.10;99.90;;;;;;5068821;28;20382;-79
2022/01/30 12:14:04;;;;;;;83.95;37.03;;;8.20;99.90;;;;;;5069743;28;20411;-79
2022/01/30 12:17:00;;;;;;;86.40;37.55;;;8.10;99.90;;;;;;5069999;28;20060;-80
2022/01/30 12:19:45;;;;;;;81.25;37.35;;;8.20;99.90;;;;;;5050770;28;20029;-78
2022/01/30 12:22:17;;;;;;;89.47;37.28;;;8.30;99.90;;;;;;5050851;28;20021;-79
2022/01/30 12:24:53;;;;;;;78.68;34.88;;;8.30;99.90;;;;;;5050963;28;20021;-79
2022/01/30 12:27:19;;;;;;;87.60;36.92;;;8.30;99.90;;;;;;5032330;28;20028;-79
2022/01/30 12:29:50;;;;;;;94.35;39.05;;;8.40;99.90;;;;;;5053930;28;20024;-78
2022/01/30 12:32:22;;;;;;;83.88;38.05;;;8.40;99.90;;;;;;5065437;28;20108;-79
2022/01/30 12:34:54;;;;;;;85.13;38.17;;;8.50;99.90;;;;;;5056055;28;20134;-78
2022/01/30 12:37:25;;;;;;;86.78;37.20;;;8.50;99.90;;;;;;5073781;28;20036;-79
2022/01/30 12:39:52;;;;;;;79.57;37.22;;;8.50;99.90;;;;;;5068876;28;20070;-79
2022/01/30 12:42:20;;;;;;;79.35;36.88;;;8.50;99.90;;;;;;5059864;28;20439;-79
2022/01/30 12:44:47;;;;;;;83.47;35.83;;;8.60;99.90;;;;;;5073985;28;20075;-78
2022/01/30 12:47:14;;;;;;;86.47;38.40;;;8.60;99.90;;;;;;5047793;28;20017;-79
2022/01/30 12:49:44;;;;;;;80.95;36.55;;;8.60;99.90;;;;;;5051671;28;20025;-79
2022/01/30 12:52:20;;;;;;;80.90;36.88;;;8.60;99.90;;;;;;5052237;28;20139;-79
2022/01/30 12:54:49;;;;;;;84.82;37.50;;;8.60;99.90;;;;;;5044329;28;20021;-78
2022/01/30 12:57:18;;;;;;;85.32;36.83;;;8.70;99.90;;;;;;5054400;28;20021;-79
2022/01/30 12:59:58;;;;;;;84.45;38.45;;;8.70;99.90;;;;;;5067548;28;20069;-79
2022/01/30 13:02:29;;;;;;;88.35;36.63;;;8.80;99.90;;;;;;5070721;28;20112;-78
2022/01/30 13:05:04;;;;;;;87.70;38.75;;;8.80;99.90;;;;;;5063369;28;20021;-78
2022/01/30 13:07:30;;;;;;;78.97;35.97;;;8.80;99.90;;;;;;5038350;28;20039;-78
2022/01/30 13:10:13;;;;;;;88.43;37.00;;;8.80;99.90;;;;;;5070879;28;20028;-79
2022/01/30 13:12:44;;;;;;;83.45;36.38;;;8.70;99.90;;;;;;5070583;28;20562;-78
2022/01/30 13:15:12;;;;;;;87.45;36.13;;;8.70;99.90;;;;;;5056733;28;20039;-75
2022/01/30 13:17:39;;;;;;;96.95;38.38;;;8.70;99.90;;;;;;5059729;28;20121;-74
2022/01/30 13:20:07;;;;;;;88.22;36.40;;;8.70;99.90;;;;;;5059896;28;20017;-73
2022/01/30 13:22:38;;;;;;;83.97;37.67;;;8.70;99.90;;;;;;5041830;28;20044;-74
2022/01/30 13:25:09;;;;;;;85.78;37.53;;;8.70;99.90;;;;;;5057453;28;20059;-74
2022/01/30 13:27:40;;;;;;;87.60;37.42;;;8.70;99.90;;;;;;5045913;28;20120;-74
2022/01/30 13:30:07;;;;;;;82.18;38.53;;;8.70;99.90;;;;;;5062772;28;20029;-74
2022/01/30 13:32:35;;;;;;;82.65;36.40;;;8.70;99.90;;;;;;5054505;28;20029;-74
2022/01/30 13:35:03;;;;;;;90.72;38.47;;;8.70;99.90;;;;;;5059748;28;20510;-76